Time;durP1;ratioP1;P1;durP2;ratioP2;P2;SDS_P1;SDS_P2;PMS_P1;PMS_P2;Temp;Humidity;BMP_temperature;BMP_pressure;BME280_temperature;BME280_humidity;BME280_pressure;Samples;Min_cycle;Max_cycle;Signal;HPM_P1;HPM_P2
2022/12/16 00:01:14;;;;;;;13.23;11.40;;;-1.80;99.90;;;;;;5013471;28;20462;-79
2022/12/16 00:03:41;;;;;;;14.00;10.73;;;-1.60;99.90;;;;;;5013599;28;20444;-79
2022/12/16 00:06:08;;;;;;;17.37;10.10;;;-1.90;99.90;;;;;;5013093;28;20426;-79
2022/12/16 00:08:38;;;;;;;20.17;10.87;;;-2.00;99.90;;;;;;5013477;28;20772;-78
2022/12/16 00:11:04;;;;;;;14.87;9.20;;;-1.70;99.90;;;;;;5013310;28;20476;-79
2022/12/16 00:13:31;;;;;;;14.00;10.03;;;-1.90;99.90;;;;;;5012075;28;20424;-78
2022/12/16 00:15:57;;;;;;;16.97;11.10;;;-1.90;99.90;;;;;;5013431;28;20432;-79
2022/12/16 00:18:24;;;;;;;12.20;11.00;;;-2.10;99.90;;;;;;5011397;28;20418;-78
2022/12/16 00:20:52;;;;;;;16.93;10.97;;;-2.10;99.90;;;;;;5013193;28;20202;-78
2022/12/16 00:23:18;;;;;;;14.17;10.10;;;-2.00;99.90;;;;;;5011816;28;20528;-79
2022/12/16 00:25:47;;;;;;;14.57;10.80;;;-1.90;99.90;;;;;;5013229;28;20521;-78
2022/12/16 00:28:14;;;;;;;19.57;12.10;;;-2.00;99.90;;;;;;5013211;28;20208;-79
2022/12/16 00:30:41;;;;;;;17.40;11.43;;;-2.00;99.90;;;;;;5011934;28;20413;-78
2022/12/16 00:33:06;;;;;;;17.13;10.30;;;-2.10;99.90;;;;;;5013146;28;20421;-79
2022/12/16 00:35:32;;;;;;;16.50;11.17;;;-1.90;99.90;;;;;;5013135;28;20415;-80
2022/12/16 00:37:58;;;;;;;18.87;11.33;;;-1.90;99.90;;;;;;5012158;28;20237;-80
2022/12/16 00:40:24;;;;;;;16.13;10.83;;;-2.10;99.90;;;;;;5011711;28;20210;-78
2022/12/16 00:42:49;;;;;;;19.80;10.60;;;-1.80;99.90;;;;;;5013083;28;20517;-78
2022/12/16 00:45:15;;;;;;;18.53;11.30;;;-1.80;99.90;;;;;;5012959;28;20556;-78
2022/12/16 00:47:48;;;;;;;14.17;9.30;;;-2.00;99.90;;;;;;5011783;28;20175;-80
2022/12/16 00:50:18;;;;;;;14.83;9.03;;;-1.80;99.90;;;;;;5013000;28;20249;-79
2022/12/16 00:52:44;;;;;;;19.40;11.10;;;-1.90;99.90;;;;;;5011316;28;20426;-78
2022/12/16 00:55:13;;;;;;;12.53;9.80;;;-2.00;99.90;;;;;;5011218;28;20473;-78
2022/12/16 00:57:38;;;;;;;21.63;12.63;;;-2.10;99.90;;;;;;5012941;28;20620;-78
2022/12/16 01:00:05;;;;;;;11.17;9.03;;;-2.00;99.90;;;;;;5011675;28;20510;-78
2022/12/16 01:02:31;;;;;;;29.97;13.07;;;-1.90;99.90;;;;;;5013023;28;20167;-78
2022/12/16 01:04:57;;;;;;;21.47;12.13;;;-1.80;99.90;;;;;;5012848;28;20421;-78
2022/12/16 01:07:24;;;;;;;16.80;11.00;;;-1.80;99.90;;;;;;5012418;28;20432;-78
2022/12/16 01:09:50;;;;;;;16.57;10.70;;;-2.00;99.90;;;;;;5012733;28;20688;-79
2022/12/16 01:12:16;;;;;;;15.37;11.27;;;-2.00;99.90;;;;;;5012772;28;20496;-79
2022/12/16 01:14:41;;;;;;;16.00;11.90;;;-1.80;99.90;;;;;;5012780;28;20175;-78
2022/12/16 01:17:07;;;;;;;17.47;10.37;;;-1.80;99.90;;;;;;5012670;28;20206;-78
2022/12/16 01:19:32;;;;;;;17.00;10.53;;;-1.80;99.90;;;;;;5012729;28;20699;-77
2022/12/16 01:21:58;;;;;;;15.73;10.87;;;-1.70;99.90;;;;;;5012387;28;20206;-78
2022/12/16 01:24:23;;;;;;;17.63;10.13;;;-1.80;99.90;;;;;;5012847;28;20178;-78
2022/12/16 01:26:49;;;;;;;20.80;10.47;;;-1.90;99.90;;;;;;5012612;28;20210;-78
2022/12/16 01:29:14;;;;;;;19.83;11.47;;;-1.70;99.90;;;;;;5011681;28;20171;-78
2022/12/16 01:31:40;;;;;;;13.00;9.43;;;-2.10;99.90;;;;;;5016596;28;20190;-78
2022/12/16 01:34:05;;;;;;;14.87;10.30;;;-1.90;99.90;;;;;;5015281;28;20232;-78
2022/12/16 01:36:31;;;;;;;17.17;11.73;;;-1.90;99.90;;;;;;5016086;28;20181;-79
2022/12/16 01:38:56;;;;;;;13.77;9.83;;;-1.90;99.90;;;;;;5015157;28;20596;-78
2022/12/16 01:41:22;;;;;;;24.73;13.77;;;-1.90;99.90;;;;;;5016029;28;20217;-79
2022/12/16 01:43:47;;;;;;;17.97;9.87;;;-1.90;99.90;;;;;;5014917;28;20220;-79
2022/12/16 01:46:13;;;;;;;18.60;12.00;;;-1.90;99.90;;;;;;5014818;28;20528;-79
2022/12/16 01:48:45;;;;;;;14.60;11.10;;;-1.90;99.90;;;;;;5014749;28;20190;-78
2022/12/16 01:51:26;;;;;;;17.20;11.80;;;-1.80;99.90;;;;;;5015564;28;20180;-80
2022/12/16 01:53:57;;;;;;;15.17;11.70;;;-1.70;99.90;;;;;;5014492;28;20457;-80
2022/12/16 01:56:26;;;;;;;18.33;12.87;;;-1.70;99.90;;;;;;5014494;28;20417;-80
2022/12/16 01:58:51;;;;;;;16.00;9.40;;;-1.90;99.90;;;;;;5014690;28;20409;-81
2022/12/16 02:01:17;;;;;;;19.70;11.97;;;-1.90;99.90;;;;;;5014496;28;20477;-80
2022/12/16 02:03:43;;;;;;;16.97;10.43;;;-1.80;99.90;;;;;;5015848;28;20170;-80
2022/12/16 02:06:11;;;;;;;14.73;8.40;;;-1.90;99.90;;;;;;5015038;28;20167;-80
2022/12/16 02:08:37;;;;;;;15.10;11.70;;;-2.00;99.90;;;;;;5014395;28;20983;-80
2022/12/16 02:11:24;;;;;;;16.53;12.10;;;-2.10;99.90;;;;;;5015553;28;20413;-80
2022/12/16 02:13:59;;;;;;;14.50;10.70;;;-2.00;99.90;;;;;;5015739;28;20170;-79
2022/12/16 02:17:13;;;;;;;15.43;10.70;;;-1.90;99.90;;;;;;5015576;28;20420;-80
2022/12/16 02:20:02;;;;;;;20.13;11.23;;;-1.90;99.90;;;;;;5009929;28;20422;-80
2022/12/16 02:23:05;;;;;;;11.70;9.87;;;-2.00;99.90;;;;;;5013882;28;20484;-80
2022/12/16 02:25:42;;;;;;;13.10;10.87;;;-2.10;99.90;;;;;;5030689;28;20416;-78
2022/12/16 02:28:28;;;;;;;10.30;8.53;;;-1.90;99.90;;;;;;5015496;28;20444;-78
2022/12/16 02:31:36;;;;;;;19.00;10.57;;;-1.90;99.90;;;;;;5015350;28;20418;-78
2022/12/16 02:34:20;;;;;;;15.07;9.87;;;-2.00;99.90;;;;;;5015418;28;20418;-79
2022/12/16 02:37:13;;;;;;;15.57;11.73;;;-2.20;99.90;;;;;;5014804;28;20423;-78
2022/12/16 02:40:01;;;;;;;15.73;10.60;;;-1.90;99.90;;;;;;5015290;28;20507;-79
2022/12/16 02:42:30;;;;;;;17.03;10.63;;;-2.00;99.90;;;;;;5014430;28;20459;-79
2022/12/16 02:44:59;;;;;;;22.53;11.43;;;-2.10;99.90;;;;;;5015112;28;20432;-78
2022/12/16 02:47:25;;;;;;;18.80;10.10;;;-2.00;99.90;;;;;;5014992;28;20430;-78
2022/12/16 02:49:52;;;;;;;23.33;13.10;;;-2.10;99.90;;;;;;5015058;28;20904;-78
2022/12/16 02:52:29;;;;;;;20.70;12.33;;;-2.10;99.90;;;;;;5014547;28;20171;-78
2022/12/16 02:55:01;;;;;;;17.33;10.00;;;-2.00;99.90;;;;;;5014727;28;20461;-78
2022/12/16 02:57:45;;;;;;;14.30;10.20;;;-2.00;99.90;;;;;;5014924;28;20410;-78
2022/12/16 03:00:15;;;;;;;16.37;10.30;;;-2.20;99.90;;;;;;5014748;28;20495;-78
2022/12/16 03:02:50;;;;;;;15.33;10.07;;;-2.00;99.90;;;;;;5014776;28;20431;-80
2022/12/16 03:05:18;;;;;;;13.93;10.43;;;-2.00;99.90;;;;;;5014628;28;20408;-80
2022/12/16 03:07:45;;;;;;;17.77;10.10;;;-2.30;99.90;;;;;;5013180;28;20432;-80
2022/12/16 03:10:16;;;;;;;16.00;10.50;;;-2.20;99.90;;;;;;5014601;28;20908;-79
2022/12/16 03:12:44;;;;;;;16.10;10.23;;;-2.20;99.90;;;;;;5013375;28;20426;-79
2022/12/16 03:15:12;;;;;;;18.03;9.33;;;-2.10;99.90;;;;;;5014494;28;20948;-80
2022/12/16 03:17:38;;;;;;;17.60;11.03;;;-2.40;99.90;;;;;;5014491;28;20418;-80
2022/12/16 03:20:12;;;;;;;23.43;11.10;;;-2.10;99.90;;;;;;5014417;28;20511;-80
2022/12/16 03:22:41;;;;;;;16.43;10.73;;;-2.20;99.90;;;;;;5014050;28;20818;-79
2022/12/16 03:25:08;;;;;;;11.83;8.33;;;-2.40;99.90;;;;;;5013095;28;20426;-79
2022/12/16 03:27:39;;;;;;;23.57;13.87;;;-2.30;99.90;;;;;;5012821;28;20485;-79
2022/12/16 03:30:21;;;;;;;13.03;9.97;;;-2.20;99.90;;;;;;5029530;28;20425;-79
2022/12/16 03:33:10;;;;;;;13.07;9.90;;;-2.10;99.90;;;;;;5013909;28;20833;-79
2022/12/16 03:35:47;;;;;;;13.73;9.93;;;-2.30;99.90;;;;;;5013921;28;20402;-79
2022/12/16 03:38:14;;;;;;;17.07;9.57;;;-2.20;99.90;;;;;;5029442;28;20432;-79
2022/12/16 03:40:42;;;;;;;13.73;9.20;;;-2.20;99.90;;;;;;5013995;28;20483;-81
2022/12/16 03:43:22;;;;;;;15.90;10.47;;;-2.40;99.90;;;;;;5014017;28;20428;-80
2022/12/16 03:45:52;;;;;;;17.60;11.27;;;-2.40;99.90;;;;;;5013960;28;20417;-81
2022/12/16 03:48:22;;;;;;;16.67;11.00;;;-2.40;99.90;;;;;;5012678;28;20426;-80
2022/12/16 03:50:47;;;;;;;21.73;10.70;;;-2.30;99.90;;;;;;5012136;28;20431;-81
2022/12/16 03:53:13;;;;;;;22.77;12.43;;;-2.60;99.90;;;;;;5013808;28;20413;-81
2022/12/16 03:55:39;;;;;;;17.47;11.10;;;-2.70;99.90;;;;;;5013758;28;20587;-80
2022/12/16 03:58:05;;;;;;;15.50;10.27;;;-2.90;99.90;;;;;;5012397;28;20182;-81
2022/12/16 04:00:30;;;;;;;16.57;9.37;;;-3.10;99.90;;;;;;5013515;28;21287;-81
2022/12/16 04:02:55;;;;;;;20.70;11.33;;;-2.90;99.90;;;;;;5012385;28;20182;-81
2022/12/16 04:05:21;;;;;;;17.20;9.77;;;-3.00;99.90;;;;;;5011759;28;20174;-81
2022/12/16 04:07:47;;;;;;;13.47;8.80;;;-3.20;99.90;;;;;;5012305;28;20542;-80
2022/12/16 04:10:12;;;;;;;26.60;10.07;;;-3.40;99.90;;;;;;5012340;28;20221;-80
2022/12/16 04:29:28;;;;;;;11.17;8.77;;;-3.50;99.90;;;;;;5013373;28;20808;-79
2022/12/16 04:31:54;;;;;;;12.40;9.37;;;-3.70;99.90;;;;;;5013335;28;20502;-80
2022/12/16 04:34:28;;;;;;;15.17;9.27;;;-3.60;99.90;;;;;;5013297;28;20423;-79
